createdAt,value
2017-08-05T00:00:04.389Z,89.90
2017-08-05T00:02:31.915Z,90.50
2017-08-05T00:04:59.814Z,90.90
2017-08-05T00:07:27.351Z,90.90
2017-08-05T00:09:55.255Z,91.60
2017-08-05T00:12:22.802Z,91.60
2017-08-05T00:14:50.335Z,91.70
2017-08-05T00:17:18.234Z,92.00
2017-08-05T00:19:45.735Z,91.90
2017-08-05T00:22:13.267Z,92.90
2017-08-05T00:24:40.779Z,91.90
2017-08-05T00:27:08.302Z,91.50
2017-08-05T00:29:35.807Z,91.60
2017-08-05T00:32:03.717Z,91.40
2017-08-05T00:34:31.250Z,91.40
2017-08-05T00:36:58.759Z,92.80
2017-08-05T00:39:26.267Z,92.60
2017-08-05T00:41:54.194Z,92.10
2017-08-05T00:44:21.695Z,92.10
2017-08-05T00:46:49.241Z,92.10
2017-08-05T00:49:16.783Z,92.10
2017-08-05T00:51:44.295Z,92.30
2017-08-05T00:54:11.802Z,92.80
2017-08-05T00:56:39.327Z,92.40
2017-08-05T00:59:06.837Z,92.80
2017-08-05T01:01:34.345Z,93.40
2017-08-05T01:04:01.883Z,93.20
2017-08-05T01:06:29.403Z,93.40
2017-08-05T01:08:56.919Z,93.60
2017-08-05T01:11:24.456Z,93.60
2017-08-05T01:13:52.358Z,94.00
2017-08-05T01:16:19.866Z,94.00
2017-08-05T01:18:47.422Z,94.20
2017-08-05T01:21:14.950Z,94.60
2017-08-05T01:23:42.498Z,94.90
2017-08-05T01:26:10.094Z,94.90
2017-08-05T01:28:37.620Z,95.10
2017-08-05T01:31:05.159Z,94.80
2017-08-05T01:33:32.670Z,95.00
2017-08-05T01:36:00.178Z,95.50
2017-08-05T01:38:27.710Z,95.80
2017-08-05T01:40:55.238Z,95.80
2017-08-05T01:43:22.747Z,95.60
2017-08-05T01:45:50.666Z,95.80
2017-08-05T01:48:18.204Z,95.80
2017-08-05T01:50:45.726Z,95.90
2017-08-05T01:53:13.626Z,95.60
2017-08-05T01:55:41.167Z,95.60
2017-08-05T01:58:09.071Z,95.50
2017-08-05T02:00:36.582Z,95.50
2017-08-05T02:03:04.689Z,96.00
2017-08-05T02:05:32.202Z,96.00
2017-08-05T02:07:59.707Z,95.80
2017-08-05T02:10:27.235Z,95.60
2017-08-05T02:12:54.741Z,95.60
2017-08-05T02:15:22.247Z,95.70
2017-08-05T02:17:49.778Z,95.60
2017-08-05T02:20:17.286Z,95.70
2017-08-05T02:22:45.188Z,95.10
2017-08-05T02:25:12.718Z,95.10
2017-08-05T02:27:40.618Z,94.70
2017-08-05T02:30:08.128Z,94.70
2017-08-05T02:32:35.674Z,94.80
2017-08-05T02:35:03.184Z,95.30
2017-08-05T02:37:30.706Z,95.90
2017-08-05T02:39:58.247Z,96.20
2017-08-05T02:42:25.756Z,95.70
2017-08-05T02:44:53.263Z,95.90
2017-08-05T02:47:20.796Z,96.40
2017-08-05T02:49:48.303Z,97.20
2017-08-05T02:52:15.806Z,96.70
2017-08-05T02:54:43.368Z,96.80
2017-08-05T02:57:10.878Z,96.60
2017-08-05T02:59:38.389Z,96.00
2017-08-05T03:02:05.919Z,95.90
2017-08-05T03:04:33.814Z,95.90
2017-08-05T03:07:01.323Z,95.90
2017-08-05T03:09:28.863Z,96.20
2017-08-05T03:11:56.373Z,95.90
2017-08-05T03:14:23.886Z,95.80
2017-08-05T03:16:51.419Z,95.90
2017-08-05T03:19:18.939Z,95.80
2017-08-05T03:21:46.455Z,96.30
2017-08-05T03:24:13.986Z,95.70
2017-08-05T03:26:41.881Z,96.40
2017-08-05T03:29:09.392Z,96.40
2017-08-05T03:31:38.124Z,95.10
2017-08-05T03:34:05.625Z,95.10
2017-08-05T03:36:33.135Z,94.70
2017-08-05T03:39:00.675Z,94.40
2017-08-05T03:41:28.575Z,94.80
2017-08-05T03:43:56.087Z,94.80
2017-08-05T03:46:24.003Z,94.50
2017-08-05T03:48:51.512Z,94.20
2017-08-05T03:51:19.042Z,94.40
2017-08-05T03:53:46.574Z,94.80
2017-08-05T03:56:14.083Z,95.20
2017-08-05T03:58:41.598Z,94.40
2017-08-05T04:01:09.135Z,94.80
2017-08-05T04:03:37.038Z,95.00
2017-08-05T04:06:04.548Z,95.00
2017-08-05T04:08:32.084Z,95.20
2017-08-05T04:10:59.596Z,95.30
2017-08-05T04:13:27.094Z,95.60
2017-08-05T04:15:54.934Z,95.70
2017-08-05T04:18:22.439Z,95.60
2017-08-05T04:20:49.961Z,94.40
2017-08-05T04:23:17.490Z,93.50
2017-08-05T04:25:44.998Z,92.80
2017-08-05T04:28:12.523Z,92.80
2017-08-05T04:30:40.026Z,91.70
2017-08-05T04:33:07.534Z,91.40
2017-08-05T04:35:35.067Z,92.00
2017-08-05T04:38:02.566Z,92.20
2017-08-05T04:40:30.087Z,92.00
2017-08-05T04:42:57.635Z,93.00
2017-08-05T04:45:25.147Z,92.20
2017-08-05T04:47:52.659Z,91.60
2017-08-05T04:50:20.195Z,91.40
2017-08-05T04:52:47.694Z,91.60
2017-08-05T04:55:15.202Z,91.50
2017-08-05T04:57:42.742Z,91.80
2017-08-05T05:00:10.278Z,91.80
2017-08-05T05:02:37.791Z,92.10
2017-08-05T05:05:05.319Z,92.20
2017-08-05T05:07:33.222Z,91.80
2017-08-05T05:10:00.727Z,91.80
2017-08-05T05:12:28.257Z,91.70
2017-08-05T05:14:55.814Z,91.60
2017-08-05T05:17:23.334Z,91.10
2017-08-05T05:19:50.864Z,91.00
2017-08-05T05:22:18.391Z,90.40
2017-08-05T05:24:45.894Z,89.70
2017-08-05T05:27:13.824Z,89.60
2017-08-05T05:29:41.335Z,89.50
2017-08-05T05:32:09.237Z,89.30
2017-08-05T05:34:36.781Z,89.30
2017-08-05T05:37:04.290Z,88.90
2017-08-05T05:39:31.790Z,89.20
2017-08-05T05:41:59.727Z,88.30
2017-08-05T05:44:27.231Z,88.30
2017-08-05T05:46:54.743Z,87.70
2017-08-05T05:49:22.284Z,86.30
2017-08-05T05:51:49.782Z,87.20
2017-08-05T05:54:17.686Z,87.10
2017-08-05T05:56:45.218Z,87.10
2017-08-05T05:59:12.731Z,87.80
2017-08-05T06:01:40.239Z,88.70
2017-08-05T06:04:07.780Z,88.30
2017-08-05T06:06:35.288Z,87.00
2017-08-05T06:09:02.799Z,86.70
2017-08-05T06:11:30.336Z,86.10
2017-08-05T06:13:57.843Z,85.90
2017-08-05T06:16:25.347Z,84.00
2017-08-05T06:18:52.884Z,85.60
2017-08-05T06:21:20.391Z,83.90
2017-08-05T06:23:47.898Z,85.20
2017-08-05T06:26:15.439Z,85.70
2017-08-05T06:28:43.347Z,85.20
2017-08-05T06:31:10.851Z,85.20
2017-08-05T06:33:38.382Z,84.30
2017-08-05T06:36:05.914Z,82.70
2017-08-05T06:38:33.415Z,82.40
2017-08-05T06:41:00.927Z,82.60
2017-08-05T06:43:28.459Z,83.10
2017-08-05T06:45:55.967Z,85.10
2017-08-05T06:48:23.474Z,84.00
2017-08-05T06:50:51.009Z,82.80
2017-08-05T06:53:18.511Z,83.20
2017-08-05T06:55:46.407Z,81.30
2017-08-05T06:58:13.939Z,81.20
2017-08-05T07:00:41.839Z,82.80
2017-08-05T07:03:09.347Z,82.90
2017-08-05T07:05:36.874Z,82.30
2017-08-05T07:08:04.379Z,79.30
2017-08-05T07:10:31.884Z,81.50
2017-08-05T07:12:59.418Z,80.10
2017-08-05T07:15:27.343Z,77.90
2017-08-05T07:17:54.846Z,77.90
2017-08-05T07:20:22.775Z,79.10
2017-08-05T07:22:50.285Z,79.10
2017-08-05T07:25:17.786Z,76.60
2017-08-05T07:27:45.319Z,75.80
2017-08-05T07:30:13.651Z,74.90
2017-08-05T07:32:41.160Z,74.70
2017-08-05T07:35:08.712Z,74.20
2017-08-05T07:37:36.242Z,73.70
2017-08-05T07:40:04.155Z,73.10
2017-08-05T07:42:31.666Z,73.10
2017-08-05T07:44:59.193Z,74.90
2017-08-05T07:47:26.703Z,73.50
2017-08-05T07:49:54.599Z,73.00
2017-08-05T07:52:22.153Z,73.00
2017-08-05T07:54:49.654Z,73.00
2017-08-05T07:57:17.155Z,72.20
2017-08-05T07:59:44.690Z,72.10
2017-08-05T08:02:12.195Z,73.10
2017-08-05T08:04:39.699Z,70.10
2017-08-05T08:07:07.226Z,70.00
2017-08-05T08:09:34.735Z,69.90
2017-08-05T08:12:02.237Z,71.60
2017-08-05T08:14:29.767Z,68.60
2017-08-05T08:16:57.688Z,67.00
2017-08-05T08:19:25.191Z,67.00
2017-08-05T08:21:53.119Z,67.60
2017-08-05T08:24:20.628Z,67.60
2017-08-05T08:26:48.135Z,67.50
2017-08-05T08:29:15.681Z,68.40
2017-08-05T08:31:43.183Z,66.90
2017-08-05T08:34:10.701Z,67.80
2017-08-05T08:36:38.239Z,66.80
2017-08-05T08:39:05.750Z,66.80
2017-08-05T08:41:33.283Z,67.70
2017-08-05T08:44:00.806Z,68.80
2017-08-05T08:46:28.333Z,65.90
2017-08-05T08:48:55.850Z,67.50
2017-08-05T08:51:23.380Z,67.20
2017-08-05T08:53:51.283Z,67.50
2017-08-05T08:56:18.819Z,67.50
2017-08-05T08:58:46.721Z,68.80
2017-08-05T09:01:14.231Z,68.80
2017-08-05T09:03:41.762Z,67.30
2017-08-05T09:06:09.262Z,67.70
2017-08-05T09:08:37.175Z,67.20
2017-08-05T09:11:04.707Z,67.20
2017-08-05T09:13:32.230Z,66.60
2017-08-05T09:15:59.730Z,67.40
2017-08-05T09:18:27.259Z,67.80
2017-08-05T09:20:54.788Z,66.20
2017-08-05T09:23:22.297Z,67.00
2017-08-05T09:25:50.227Z,66.40
2017-08-05T09:28:17.727Z,66.40
2017-08-05T09:30:45.633Z,67.60
2017-08-05T09:33:13.171Z,67.60
2017-08-05T09:35:40.674Z,68.50
2017-08-05T09:38:08.186Z,66.30
2017-08-05T09:40:35.722Z,65.70
2017-08-05T09:43:03.228Z,66.30
2017-08-05T09:45:30.731Z,65.80
2017-08-05T09:47:58.263Z,66.10
2017-08-05T09:50:25.763Z,65.20
2017-08-05T09:52:53.280Z,65.40
2017-08-05T09:55:20.811Z,64.90
2017-08-05T09:57:48.335Z,62.50
2017-08-05T10:00:15.855Z,65.90
2017-08-05T10:02:43.379Z,62.50
2017-08-05T10:05:10.908Z,62.30
2017-08-05T10:07:38.411Z,61.60
2017-08-05T10:10:05.948Z,61.70
2017-08-05T10:12:33.861Z,63.70
2017-08-05T10:15:01.371Z,63.70
2017-08-05T10:17:28.895Z,63.20
2017-08-05T10:19:56.394Z,64.10
2017-08-05T10:22:23.900Z,65.10
2017-08-05T10:24:51.425Z,66.30
2017-08-05T10:27:19.329Z,66.40
2017-08-05T10:29:46.830Z,66.40
2017-08-05T10:32:14.355Z,64.10
2017-08-05T10:34:41.854Z,64.40
2017-08-05T10:37:09.354Z,67.00
2017-08-05T10:39:36.887Z,65.30
2017-08-05T10:42:04.782Z,64.30
2017-08-05T10:44:32.287Z,64.20
2017-08-05T10:46:59.810Z,61.60
2017-08-05T10:49:27.318Z,63.40
2017-08-05T10:51:54.818Z,61.70
2017-08-05T10:54:22.347Z,60.90
2017-08-05T10:56:49.878Z,61.70
2017-08-05T10:59:17.388Z,62.00
2017-08-05T11:01:45.323Z,63.50
2017-08-05T11:04:12.818Z,63.40
2017-08-05T11:06:40.739Z,62.80
2017-08-05T11:09:08.646Z,62.80
2017-08-05T11:11:36.947Z,60.80
2017-08-05T11:14:04.454Z,60.80
2017-08-05T11:16:31.985Z,63.50
2017-08-05T11:18:59.492Z,62.00
2017-08-05T11:21:26.996Z,62.10
2017-08-05T11:23:54.539Z,62.40
2017-08-05T11:26:22.042Z,60.70
2017-08-05T11:28:49.550Z,61.90
2017-08-05T11:31:17.478Z,62.80
2017-08-05T11:33:45.090Z,62.70
2017-08-05T11:36:12.594Z,61.20
2017-08-05T11:38:40.123Z,61.10
2017-08-05T11:41:07.636Z,62.20
2017-08-05T11:43:35.158Z,61.50
2017-08-05T11:46:02.687Z,63.10
2017-08-05T11:48:30.587Z,64.50
2017-08-05T11:50:58.093Z,64.50
2017-08-05T11:53:25.627Z,64.10
2017-08-05T11:55:53.130Z,64.10
2017-08-05T11:58:21.036Z,61.40
2017-08-05T12:00:48.571Z,61.40
2017-08-05T12:03:16.078Z,62.70
2017-08-05T12:05:43.577Z,63.00
2017-08-05T12:08:11.514Z,62.40
2017-08-05T12:10:39.019Z,62.40
2017-08-05T12:13:06.928Z,61.50
2017-08-05T12:15:34.465Z,61.50
2017-08-05T12:18:01.979Z,62.60
2017-08-05T12:20:29.487Z,62.30
2017-08-05T12:22:57.029Z,61.10
2017-08-05T12:25:24.555Z,63.10
2017-08-05T12:27:52.469Z,61.10
2017-08-05T12:30:20.031Z,61.10
2017-08-05T12:32:47.554Z,61.60
2017-08-05T12:35:15.068Z,60.10
2017-08-05T12:37:42.598Z,60.50
2017-08-05T12:40:10.110Z,59.80
2017-08-05T12:42:37.615Z,60.40
2017-08-05T12:45:05.542Z,60.50
2017-08-05T12:47:33.043Z,60.50
2017-08-05T12:50:00.941Z,62.50
2017-08-05T12:52:28.475Z,62.60
2017-08-05T12:54:56.371Z,64.30
2017-08-05T12:57:23.879Z,64.30
2017-08-05T12:59:51.411Z,64.40
2017-08-05T13:02:18.911Z,67.00
2017-08-05T13:04:46.419Z,69.40
2017-08-05T13:07:13.946Z,71.90
2017-08-05T13:09:41.448Z,73.50
2017-08-05T13:12:08.955Z,74.80
2017-08-05T13:14:36.879Z,75.30
2017-08-05T13:17:04.387Z,75.30
2017-08-05T13:19:32.289Z,75.90
2017-08-05T13:21:59.827Z,75.90
2017-08-05T13:24:27.367Z,76.00
2017-08-05T13:26:54.899Z,78.20
2017-08-05T13:29:22.407Z,80.20
2017-08-05T13:31:49.915Z,80.50
2017-08-05T13:34:17.438Z,81.60
2017-08-05T13:36:44.947Z,82.90
2017-08-05T13:39:12.465Z,82.90
2017-08-05T13:41:39.990Z,82.30
2017-08-05T13:44:07.499Z,81.50
2017-08-05T13:46:35.010Z,81.80
2017-08-05T13:49:02.535Z,82.10
2017-08-05T13:51:30.047Z,80.40
2017-08-05T13:53:57.546Z,79.50
2017-08-05T13:56:25.067Z,79.60
2017-08-05T13:58:52.965Z,81.20
2017-08-05T14:01:20.477Z,81.20
2017-08-05T14:03:48.001Z,80.70
2017-08-05T14:06:15.499Z,80.40
2017-08-05T14:08:43.007Z,81.00
2017-08-05T14:11:10.543Z,78.40
2017-08-05T14:13:38.072Z,78.50
2017-08-05T14:16:06.023Z,78.10
2017-08-05T14:18:33.538Z,78.00
2017-08-05T14:21:01.068Z,79.70
2017-08-05T14:23:28.576Z,78.70
2017-08-05T14:25:56.087Z,78.60
2017-08-05T14:28:23.620Z,76.80
2017-08-05T14:30:51.123Z,76.10
2017-08-05T14:33:19.024Z,77.00
2017-08-05T14:35:46.550Z,77.00
2017-08-05T14:38:14.447Z,76.70
2017-08-05T14:40:41.946Z,76.70
2017-08-05T14:43:09.471Z,76.70
2017-08-05T14:45:36.974Z,75.80
2017-08-05T14:48:04.484Z,75.30
2017-08-05T14:50:32.011Z,74.40
2017-08-05T14:52:59.511Z,75.10
2017-08-05T14:55:27.019Z,74.90
2017-08-05T14:57:54.543Z,74.90
2017-08-05T15:00:22.043Z,75.50
2017-08-05T15:02:49.551Z,74.70
2017-08-05T15:05:17.074Z,76.40
2017-08-05T15:07:44.975Z,73.10
2017-08-05T15:10:12.486Z,73.00
2017-08-05T15:12:40.018Z,74.00
2017-08-05T15:15:07.535Z,75.50
2017-08-05T15:17:35.430Z,75.80
2017-08-05T15:20:02.956Z,75.80
2017-08-05T15:22:30.855Z,72.80
2017-08-05T15:24:58.363Z,72.80
2017-08-05T15:27:25.886Z,73.20
2017-08-05T15:29:53.382Z,74.10
2017-08-05T15:32:20.886Z,73.40
2017-08-05T15:34:48.416Z,70.40
2017-08-05T15:37:15.919Z,70.70
2017-08-05T15:39:43.779Z,71.00
2017-08-05T15:42:11.300Z,69.10
2017-08-05T15:44:38.818Z,69.40
2017-08-05T15:47:06.350Z,68.90
2017-08-05T15:49:33.861Z,69.90
2017-08-05T15:52:01.366Z,71.20
2017-08-05T15:54:29.293Z,74.40
2017-08-05T15:56:56.799Z,74.40
2017-08-05T15:59:27.186Z,75.30
2017-08-05T16:01:54.733Z,72.90
2017-08-05T16:04:22.261Z,71.80
2017-08-05T16:06:49.793Z,72.00
2017-08-05T16:09:17.726Z,70.00
2017-08-05T16:11:45.256Z,70.00
2017-08-05T16:14:12.759Z,68.30
2017-08-05T16:16:40.259Z,63.50
2017-08-05T16:19:07.782Z,58.70
2017-08-05T16:21:35.291Z,55.60
2017-08-05T16:24:02.816Z,57.30
2017-08-05T16:26:30.335Z,61.20
2017-08-05T16:28:57.848Z,64.40
2017-08-05T16:31:25.771Z,70.10
2017-08-05T16:33:53.283Z,70.10
2017-08-05T16:36:21.183Z,71.60
2017-08-05T16:38:48.706Z,71.50
2017-08-05T16:41:16.602Z,73.60
2017-08-05T16:43:44.106Z,73.60
2017-08-05T16:46:11.635Z,73.60
2017-08-05T16:48:39.142Z,74.70
2017-08-05T16:51:06.654Z,76.00
2017-08-05T16:53:34.191Z,76.50
2017-08-05T16:56:01.692Z,76.10
2017-08-05T16:58:29.204Z,77.50
2017-08-05T17:00:56.736Z,76.80
2017-08-05T17:03:24.239Z,76.20
2017-08-05T17:05:51.748Z,76.30
2017-08-05T17:08:19.279Z,76.70
2017-08-05T17:10:46.836Z,76.60
2017-08-05T17:13:14.350Z,77.20
2017-08-05T17:15:42.312Z,76.40
2017-08-05T17:18:09.835Z,76.40
2017-08-05T17:20:37.350Z,76.40
2017-08-05T17:23:04.883Z,75.70
2017-08-05T17:25:32.404Z,76.50
2017-08-05T17:27:59.911Z,75.90
2017-08-05T17:30:27.446Z,76.20
2017-08-05T17:32:54.955Z,76.70
2017-08-05T17:35:22.889Z,75.90
2017-08-05T17:37:50.409Z,75.90
2017-08-05T17:40:17.935Z,76.50
2017-08-05T17:42:45.887Z,76.40
2017-08-05T17:45:13.387Z,76.40
2017-08-05T17:47:40.891Z,76.80
2017-08-05T17:50:08.425Z,76.20
2017-08-05T17:52:35.930Z,76.10
2017-08-05T17:55:03.463Z,76.20
2017-08-05T17:57:30.964Z,76.00
2017-08-05T17:59:58.867Z,75.30
2017-08-05T18:02:26.402Z,75.30
2017-08-05T18:04:54.319Z,75.50
2017-08-05T18:07:21.822Z,75.50
2017-08-05T18:09:49.745Z,74.30
2017-08-05T18:12:17.251Z,74.30
2017-08-05T18:14:45.150Z,73.90
2017-08-05T18:17:12.671Z,73.90
2017-08-05T18:19:40.174Z,73.90
2017-08-05T18:22:07.678Z,73.40
2017-08-05T18:24:35.209Z,73.70
2017-08-05T18:27:02.711Z,73.40
2017-08-05T18:29:30.213Z,74.20
2017-08-05T18:31:57.750Z,73.20
2017-08-05T18:34:25.254Z,72.50
2017-08-05T18:36:52.763Z,72.60
2017-08-05T18:39:20.695Z,72.70
2017-08-05T18:41:48.194Z,72.70
2017-08-05T18:44:16.096Z,71.20
2017-08-05T18:46:43.622Z,71.20
2017-08-05T18:49:11.528Z,70.50
2017-08-05T18:51:39.039Z,70.50
2017-08-05T18:54:06.574Z,70.20
2017-08-05T18:56:34.934Z,69.10
2017-08-05T18:59:02.645Z,68.20
2017-08-05T19:01:30.171Z,68.20
2017-08-05T19:03:57.706Z,67.40
2017-08-05T19:06:25.239Z,66.50
2017-08-05T19:08:53.141Z,66.10
2017-08-05T19:11:20.683Z,66.10
2017-08-05T19:13:48.203Z,65.90
2017-08-05T19:16:15.718Z,65.30
2017-08-05T19:18:43.216Z,66.00
2017-08-05T19:21:10.747Z,65.40
2017-08-05T19:23:38.248Z,65.70
2017-08-05T19:26:05.783Z,66.10
2017-08-05T19:28:33.292Z,66.60
2017-08-05T19:31:01.208Z,65.80
2017-08-05T19:33:28.746Z,65.80
2017-08-05T19:35:56.295Z,66.90
2017-08-05T19:38:23.835Z,66.20
2017-08-05T19:40:51.357Z,67.70
2017-08-05T19:43:18.878Z,66.50
2017-08-05T19:45:46.407Z,66.30
2017-08-05T19:48:13.916Z,66.80
2017-08-05T19:50:41.451Z,68.40
2017-08-05T19:53:09.347Z,67.30
2017-08-05T19:55:36.872Z,67.30
2017-08-05T19:58:04.443Z,67.10
2017-08-05T20:00:31.950Z,67.60
2017-08-05T20:02:59.459Z,68.20
2017-08-05T20:05:27.382Z,68.70
2017-08-05T20:07:54.887Z,68.70
2017-08-05T20:10:22.802Z,68.60
2017-08-05T20:12:50.326Z,68.60
2017-08-05T20:15:18.227Z,69.70
2017-08-05T20:17:45.736Z,69.70
2017-08-05T20:20:13.666Z,71.00
2017-08-05T20:22:41.178Z,71.00
2017-08-05T20:25:09.076Z,71.50
2017-08-05T20:27:36.601Z,71.50
2017-08-05T20:30:04.103Z,69.70
2017-08-05T20:32:31.607Z,70.10
2017-08-05T20:34:59.130Z,69.90
2017-08-05T20:37:26.631Z,70.10
2017-08-05T20:39:54.131Z,70.60
2017-08-05T20:42:21.658Z,71.00
2017-08-05T20:44:49.559Z,71.50
2017-08-05T20:47:17.083Z,71.50
2017-08-05T20:49:44.602Z,70.80
2017-08-05T20:52:12.109Z,71.40
2017-08-05T20:54:39.648Z,71.40
2017-08-05T20:57:07.159Z,72.10
2017-08-05T20:59:34.668Z,72.10
2017-08-05T21:02:02.192Z,73.30
2017-08-05T21:04:29.719Z,72.50
2017-08-05T21:06:57.616Z,73.60
2017-08-05T21:09:25.185Z,73.60
2017-08-05T21:11:52.694Z,72.60
2017-08-05T21:14:20.190Z,72.40
2017-08-05T21:16:47.725Z,73.60
2017-08-05T21:19:15.753Z,73.10
2017-08-05T21:21:43.564Z,73.00
2017-08-05T21:24:11.098Z,74.30
2017-08-05T21:26:38.653Z,73.80
2017-08-05T21:29:06.196Z,74.40
2017-08-05T21:31:33.951Z,73.80
2017-08-05T21:34:01.492Z,74.10
2017-08-05T21:36:29.018Z,74.00
2017-08-05T21:38:56.519Z,75.00
2017-08-05T21:41:24.037Z,74.40
2017-08-05T21:43:51.580Z,74.60
2017-08-05T21:46:19.079Z,75.30
2017-08-05T21:48:46.979Z,76.50
2017-08-05T21:51:14.505Z,76.50
2017-08-05T21:53:42.405Z,76.60
2017-08-05T21:56:09.940Z,76.60
2017-08-05T21:58:37.459Z,76.60
2017-08-05T22:01:04.995Z,77.60
2017-08-05T22:03:32.527Z,77.50
2017-08-05T22:06:00.968Z,78.80
2017-08-05T22:08:28.485Z,78.80
2017-08-05T22:10:56.012Z,79.20
2017-08-05T22:13:23.914Z,79.60
2017-08-05T22:15:51.417Z,79.60
2017-08-05T22:18:18.946Z,80.00
2017-08-05T22:20:46.446Z,80.20
2017-08-05T22:23:13.942Z,81.00
2017-08-05T22:25:41.466Z,80.80
2017-08-05T22:28:08.971Z,80.30
2017-08-05T22:30:36.474Z,80.90
2017-08-05T22:33:04.002Z,81.10
2017-08-05T22:35:31.555Z,80.60
2017-08-05T22:37:59.066Z,82.30
2017-08-05T22:40:26.598Z,82.40
2017-08-05T22:42:54.101Z,82.90
2017-08-05T22:45:22.008Z,83.20
2017-08-05T22:47:49.547Z,83.10
2017-08-05T22:50:17.464Z,82.20
2017-08-05T22:52:44.969Z,82.20
2017-08-05T22:55:12.954Z,81.60
2017-08-05T22:57:40.459Z,81.60
2017-08-05T23:00:07.964Z,81.70
2017-08-05T23:02:35.882Z,79.80
2017-08-05T23:05:03.383Z,79.80
2017-08-05T23:07:31.282Z,80.60
2017-08-05T23:09:58.823Z,80.60
2017-08-05T23:12:26.725Z,80.50
2017-08-05T23:14:54.231Z,80.40
2017-08-05T23:17:21.763Z,80.50
2017-08-05T23:19:49.262Z,80.60
2017-08-05T23:22:16.766Z,81.00
2017-08-05T23:24:44.290Z,81.10
2017-08-05T23:27:12.206Z,81.80
2017-08-05T23:29:39.712Z,81.80
2017-08-05T23:32:07.638Z,81.30
2017-08-05T23:34:35.150Z,81.40
2017-08-05T23:37:03.063Z,81.00
2017-08-05T23:39:30.597Z,81.00
2017-08-05T23:41:58.098Z,80.80
2017-08-05T23:44:25.607Z,81.20
2017-08-05T23:46:53.130Z,81.40
2017-08-05T23:49:20.639Z,82.10
2017-08-05T23:51:48.138Z,81.10
2017-08-05T23:54:15.668Z,81.00
2017-08-05T23:56:43.212Z,79.50
2017-08-05T23:59:10.715Z,81.40
